INFORMACIÓN METAR y TAF
METAR FOR EGNX
ADDS - METARS form results

(0815 UTC 15 April 2021)
Data provider http://aviationweather.gov/metar/data/
 
METAR text: EGNX 150750Z VRB03KT CAVOK 04/00 Q1035
Conditions at: EGNX (EAST MIDLANDS , GB) observed 0750 UTC 15 April 2021
Temperature: 4.0°C (39°F)
Dewpoint: 0.0°C (32°F) [RH = 75%]
Pressure (altimeter): 30.56 inches Hg (1035.0 mb)
Winds: variable direction winds at 3 MPH (3 knots; 1.5 m/s)
Visibility: 6 or more miles (10+ km)
Ceiling: ceiling and visibility are OK
Clouds: unknown
Weather: no significant weather observed at this time

METAR text: EGNX 150720Z 36003KT CAVOK 03/M00 Q1035
Conditions at: EGNX (EAST MIDLANDS , GB) observed 0720 UTC 15 April 2021
Temperature: 3.0°C (37°F)
Dewpoint: 0.0°C (32°F) [RH = 81%]
Pressure (altimeter): 30.56 inches Hg (1035.0 mb)
Winds: from the N (360 degrees) at 3 MPH (3 knots; 1.5 m/s)
Visibility: 6 or more miles (10+ km)
Ceiling: ceiling and visibility are OK
Clouds: unknown
Weather: no significant weather observed at this time

Forecast for: EGNX (EAST MIDLANDS , GB)
Text: TAF EGNX 150453Z 1506/1606 VRB02KT 9999 FEW045
Forecast period: 0600 UTC 15 April 2021 to 0600 UTC 16 April 2021
Forecast type: FROM: standard forecast or significant change
Winds: variable direction winds at 2 MPH (2 knots; 1.0 m/s)
Visibility: 6 or more miles (10+ km)
Ceiling: at least 12,000 feet AGL
Clouds: few clouds at 4500 feet AGL
Weather: no significant weather forecast for this period
Text: PROB30
Forecast period: 0600 to 0800 UTC 15 April 2021
Forecast type: TEMPORARY: The following changes expected for less than half the time period
Visibility: 4 miles (6 km)
Ceiling: unknown
Clouds: missing
Weather: no significant weather forecast for this period
Text: TEMPO 1506/1508 6000
Forecast period: 0300 to 0600 UTC 16 April 2021
Forecast type: TEMPORARY: The following changes expected for less than half the time period
Visibility: 4 miles (6 km)
Ceiling: unknown
Clouds: missing
Weather: no significant weather forecast for this period

 MAPA DE AEROPUERTO

 INFORMACIÓN DE PISTA
Pista 09 Longitud 9491 ft Ancho 151 ft
Elevación 306 ft Umbral desplazado 590 ft Rumbo de pista 88
Pista 27 Longitud 9491 ft Ancho 151 ft
Elevación 282 ft Umbral desplazado 426 ft Rumbo de pista 268

 FRECUANCIAS DEL AEROPUERTO
Tipo APP Nombre APP Frecuencia 134.175 MHZ
Tipo ATIS Nombre ATIS Frecuencia 128.225 MHZ
Tipo Fire servi Nombre Frecuencia 121.6 MHZ
Tipo GND Nombre GND Frecuencia 121.9 MHZ
Tipo TWR Nombre TWR Frecuencia 124 MHZ

 RADIO AYUDAS DEL AEROPUERTO



Powered by Virtual Airlines Manager [v2.6.2]